createdAt,value
2018-12-01T00:02:44.282Z,101.96
2018-12-01T00:05:49.182Z,102.59
2018-12-01T00:08:54.206Z,102.48
2018-12-01T00:11:59.122Z,103.40
2018-12-01T00:15:04.007Z,103.33
2018-12-01T00:18:08.955Z,103.08
2018-12-01T00:21:13.818Z,103.20
2018-12-01T00:24:18.756Z,103.27
2018-12-01T00:27:23.677Z,103.15
2018-12-01T00:30:28.616Z,102.93
2018-12-01T00:33:33.499Z,102.87
2018-12-01T00:36:38.323Z,103.09
2018-12-01T00:39:43.199Z,102.66
2018-12-01T00:42:48.101Z,102.33
2018-12-01T00:45:53.008Z,101.90
2018-12-01T00:48:57.904Z,101.66
2018-12-01T00:52:02.766Z,102.20
2018-12-01T00:55:09.232Z,102.21
2018-12-01T00:58:14.089Z,102.55
2018-12-01T01:01:18.961Z,102.49
2018-12-01T01:04:23.841Z,102.49
2018-12-01T01:07:28.697Z,102.39
2018-12-01T01:10:34.823Z,103.02
2018-12-01T01:13:39.787Z,103.12
2018-12-01T01:16:44.658Z,103.16
2018-12-01T01:19:49.594Z,102.97
2018-12-01T01:22:54.511Z,102.86
2018-12-01T01:25:59.377Z,103.07
2018-12-01T01:29:04.366Z,102.95
2018-12-01T01:32:09.319Z,102.93
2018-12-01T01:35:14.298Z,102.84
2018-12-01T01:38:19.249Z,102.56
2018-12-01T01:41:24.104Z,102.65
2018-12-01T01:44:28.972Z,102.78
2018-12-01T01:47:33.902Z,102.80
2018-12-01T01:50:38.777Z,103.26
2018-12-01T01:53:43.622Z,103.16
2018-12-01T01:56:48.462Z,103.20
2018-12-01T01:59:53.392Z,103.32
2018-12-01T02:02:58.273Z,103.61
2018-12-01T02:06:03.249Z,103.82
2018-12-01T02:09:09.447Z,103.58
2018-12-01T02:12:14.432Z,103.74
2018-12-01T02:15:19.639Z,103.98
2018-12-01T02:18:24.633Z,103.77
2018-12-01T02:21:29.466Z,103.72
2018-12-01T02:24:34.286Z,103.67
2018-12-01T02:27:39.288Z,103.40
2018-12-01T02:30:44.150Z,103.40
2018-12-01T02:33:51.874Z,103.76
2018-12-01T02:36:56.718Z,103.84
2018-12-01T02:40:01.663Z,103.70
2018-12-01T02:43:06.553Z,103.51
2018-12-01T02:46:51.133Z,103.60
2018-12-01T02:49:56.439Z,103.74
2018-12-01T02:53:04.333Z,104.00
2018-12-01T02:56:09.178Z,104.10
2018-12-01T02:59:14.005Z,104.20
2018-12-01T03:02:18.973Z,104.24
2018-12-01T03:05:25.250Z,104.16
2018-12-01T03:08:30.088Z,104.14
2018-12-01T03:11:34.933Z,104.20
2018-12-01T03:14:39.824Z,104.28
2018-12-01T03:17:44.658Z,104.25
2018-12-01T03:20:49.554Z,104.19
2018-12-01T03:23:54.423Z,103.89
2018-12-01T03:26:59.306Z,103.68
2018-12-01T03:30:14.060Z,103.38
2018-12-01T03:33:18.935Z,103.04
2018-12-01T03:36:23.888Z,102.39
2018-12-01T03:39:28.835Z,101.57
2018-12-01T03:42:33.755Z,101.69
2018-12-01T03:45:38.679Z,101.35
2018-12-01T03:48:43.504Z,100.91
2018-12-01T03:51:48.373Z,100.91
2018-12-01T03:54:53.230Z,100.73
2018-12-01T03:57:58.209Z,100.74
2018-12-01T04:01:03.071Z,100.88
2018-12-01T04:04:08.007Z,100.94
2018-12-01T04:07:12.885Z,100.88
2018-12-01T04:10:17.778Z,100.75
2018-12-01T04:13:22.623Z,100.91
2018-12-01T04:16:27.502Z,100.77
2018-12-01T04:19:32.577Z,100.37
2018-12-01T04:22:37.434Z,100.33
2018-12-01T04:25:42.318Z,100.48
2018-12-01T04:28:47.169Z,100.08
2018-12-01T04:31:51.982Z,99.73
2018-12-01T04:34:56.823Z,99.81
2018-12-01T04:38:01.762Z,100.03
2018-12-01T04:41:06.619Z,99.60
2018-12-01T04:44:11.480Z,99.67
2018-12-01T04:47:16.510Z,99.56
2018-12-01T04:50:21.360Z,99.58
2018-12-01T04:53:26.202Z,99.79
2018-12-01T04:56:31.092Z,99.82
2018-12-01T04:59:36.460Z,99.80
2018-12-01T05:02:41.321Z,99.77
2018-12-01T05:05:46.182Z,99.94
2018-12-01T05:08:51.056Z,100.21
2018-12-01T05:11:55.873Z,99.91
2018-12-01T05:15:00.738Z,99.53
2018-12-01T05:18:07.052Z,99.66
2018-12-01T05:21:13.268Z,99.75
2018-12-01T05:24:17.644Z,99.85
2018-12-01T05:27:24.814Z,99.65
2018-12-01T05:30:28.368Z,99.37
2018-12-01T05:33:33.265Z,100.39
2018-12-01T05:36:38.128Z,99.69
2018-12-01T05:39:43.065Z,100.16
2018-12-01T05:42:47.910Z,99.55
2018-12-01T05:45:53.129Z,99.21
2018-12-01T05:48:57.982Z,99.21
2018-12-01T05:52:02.847Z,99.75
2018-12-01T05:55:12.667Z,99.80
2018-12-01T05:58:17.534Z,100.28
2018-12-01T06:01:22.393Z,100.20
2018-12-01T06:04:27.259Z,100.03
2018-12-01T06:07:32.133Z,100.45
2018-12-01T06:10:37.821Z,100.24
2018-12-01T06:13:42.712Z,100.47
2018-12-01T06:16:47.594Z,99.87
2018-12-01T06:19:52.459Z,99.95
2018-12-01T06:22:57.320Z,99.50
2018-12-01T06:26:02.245Z,99.46
2018-12-01T06:29:07.160Z,98.72
2018-12-01T06:32:12.079Z,98.87
2018-12-01T06:35:16.951Z,99.08
2018-12-01T06:38:21.818Z,99.03
2018-12-01T06:41:26.744Z,98.66
2018-12-01T06:44:31.609Z,98.88
2018-12-01T06:47:36.835Z,98.76
2018-12-01T06:50:41.763Z,98.77
2018-12-01T06:53:46.615Z,98.27
2018-12-01T06:56:51.494Z,97.99
2018-12-01T06:59:56.326Z,97.82
2018-12-01T07:03:01.225Z,96.72
2018-12-01T07:06:06.154Z,97.00
2018-12-01T07:09:11.545Z,97.13
2018-12-01T07:12:16.404Z,97.55
2018-12-01T07:15:34.675Z,97.66
2018-12-01T07:19:18.758Z,97.68
2018-12-01T07:22:23.615Z,97.03
2018-12-01T07:25:28.472Z,96.76
2018-12-01T07:28:33.350Z,97.12
2018-12-01T07:31:38.309Z,96.97
2018-12-01T07:34:43.191Z,96.83
2018-12-01T07:37:48.090Z,96.28
2018-12-01T07:40:52.974Z,96.02
2018-12-01T07:43:58.041Z,96.15
2018-12-01T07:47:02.863Z,96.58
2018-12-01T07:50:13.458Z,96.08
2018-12-01T07:53:18.300Z,96.62
2018-12-01T07:56:23.274Z,95.61
2018-12-01T07:59:28.141Z,95.74
2018-12-01T08:02:32.976Z,95.80
2018-12-01T08:05:38.163Z,95.44
2018-12-01T08:08:43.016Z,95.23
2018-12-01T08:11:47.831Z,95.41
2018-12-01T08:14:52.672Z,95.03
2018-12-01T08:17:57.505Z,95.13
2018-12-01T08:21:02.375Z,94.28
2018-12-01T08:24:07.293Z,94.22
2018-12-01T08:27:12.273Z,94.50
2018-12-01T08:30:21.719Z,93.97
2018-12-01T08:33:26.686Z,93.65
2018-12-01T08:36:31.637Z,92.91
2018-12-01T08:39:37.110Z,92.75
2018-12-01T08:42:41.977Z,91.33
2018-12-01T08:45:46.829Z,91.79
2018-12-01T08:48:51.771Z,92.23
2018-12-01T08:51:56.629Z,91.93
2018-12-01T08:55:01.546Z,91.44
2018-12-01T08:58:07.508Z,91.10
2018-12-01T09:01:12.411Z,90.72
2018-12-01T09:04:17.319Z,90.36
2018-12-01T09:07:22.307Z,89.92
2018-12-01T09:10:27.214Z,89.87
2018-12-01T09:13:38.495Z,89.44
2018-12-01T09:16:43.346Z,89.77
2018-12-01T09:19:48.175Z,88.26
2018-12-01T09:22:53.020Z,89.08
2018-12-01T09:25:57.885Z,88.68
2018-12-01T09:29:03.182Z,88.72
2018-12-01T09:32:08.044Z,88.75
2018-12-01T09:35:13.019Z,88.66
2018-12-01T09:38:17.947Z,88.72
2018-12-01T09:41:22.807Z,88.12
2018-12-01T09:44:27.624Z,88.10
2018-12-01T09:47:32.552Z,88.20
2018-12-01T09:50:38.376Z,87.24
2018-12-01T09:53:43.214Z,86.98
2018-12-01T09:56:48.111Z,86.16
2018-12-01T09:59:53.047Z,85.34
2018-12-01T10:02:58.035Z,84.96
2018-12-01T10:06:02.905Z,83.50
2018-12-01T10:09:10.091Z,84.65
2018-12-01T10:12:15.045Z,84.71
2018-12-01T10:15:24.169Z,84.11
2018-12-01T10:18:29.087Z,83.71
2018-12-01T10:21:34.080Z,83.36
2018-12-01T10:24:38.955Z,83.93
2018-12-01T10:27:44.006Z,83.18
2018-12-01T10:30:48.900Z,84.40
2018-12-01T10:33:53.835Z,83.24
2018-12-01T10:36:58.705Z,83.25
2018-12-01T10:40:04.097Z,83.76
2018-12-01T10:43:09.426Z,83.04
2018-12-01T10:46:14.300Z,82.49
2018-12-01T10:49:19.185Z,82.09
2018-12-01T10:52:24.117Z,82.09
2018-12-01T10:55:32.816Z,82.90
2018-12-01T10:58:38.443Z,82.50
2018-12-01T11:02:00.669Z,82.90
2018-12-01T11:05:05.670Z,82.26
2018-12-01T11:08:11.646Z,82.24
2018-12-01T11:11:16.517Z,82.18
2018-12-01T11:14:21.476Z,83.08
2018-12-01T11:17:26.430Z,83.39
2018-12-01T11:20:31.344Z,83.97
2018-12-01T11:23:36.312Z,82.52
2018-12-01T11:26:41.303Z,82.47
2018-12-01T11:29:46.175Z,83.60
2018-12-01T11:32:51.050Z,82.42
2018-12-01T11:35:55.884Z,82.29
2018-12-01T11:39:00.926Z,82.18
2018-12-01T11:42:05.826Z,81.63
2018-12-01T11:45:16.001Z,81.77
2018-12-01T11:48:20.871Z,81.42
2018-12-01T11:51:27.651Z,81.12
2018-12-01T11:54:32.555Z,81.38
2018-12-01T11:57:37.846Z,80.68
2018-12-01T12:00:42.727Z,80.35
2018-12-01T12:03:48.032Z,80.44
2018-12-01T12:06:52.923Z,80.13
2018-12-01T12:09:57.859Z,79.60
2018-12-01T12:13:02.692Z,79.40
2018-12-01T12:16:08.150Z,79.54
2018-12-01T12:19:13.180Z,78.71
2018-12-01T12:22:18.237Z,78.18
2018-12-01T12:25:23.102Z,78.39
2018-12-01T12:28:27.985Z,79.02
2018-12-01T12:31:32.857Z,79.05
2018-12-01T12:34:37.847Z,78.19
2018-12-01T12:37:42.656Z,78.75
2018-12-01T12:40:47.606Z,78.06
2018-12-01T12:43:52.567Z,77.64
2018-12-01T12:46:57.585Z,78.00
2018-12-01T12:50:02.465Z,77.98
2018-12-01T12:53:08.071Z,77.85
2018-12-01T12:56:12.871Z,78.45
2018-12-01T12:59:17.836Z,78.13
2018-12-01T13:02:22.702Z,78.13
2018-12-01T13:05:28.916Z,77.81
2018-12-01T13:08:33.942Z,77.23
2018-12-01T13:11:38.945Z,77.71
2018-12-01T13:14:43.810Z,77.25
2018-12-01T13:17:48.895Z,77.74
2018-12-01T13:20:53.741Z,77.61
2018-12-01T13:23:58.636Z,78.00
2018-12-01T13:27:03.498Z,78.42
2018-12-01T13:30:24.962Z,78.38
2018-12-01T13:33:30.194Z,78.66
2018-12-01T13:36:35.061Z,78.45
2018-12-01T13:39:39.895Z,78.74
2018-12-01T13:42:45.381Z,78.35
2018-12-01T13:45:50.370Z,78.22
2018-12-01T13:48:55.290Z,78.16
2018-12-01T13:52:00.622Z,77.93
2018-12-01T13:55:06.006Z,78.69
2018-12-01T13:58:10.946Z,79.23
2018-12-01T14:01:15.967Z,79.26
2018-12-01T14:04:20.812Z,78.93
2018-12-01T14:07:25.767Z,78.26
2018-12-01T14:10:31.769Z,78.46
2018-12-01T14:13:36.887Z,77.74
2018-12-01T14:16:42.797Z,79.07
2018-12-01T14:19:47.575Z,79.45
2018-12-01T14:22:52.764Z,79.47
2018-12-01T14:25:57.627Z,79.21
2018-12-01T14:29:02.491Z,80.07
2018-12-01T14:32:08.142Z,80.23
2018-12-01T14:35:19.867Z,81.01
2018-12-01T14:38:25.145Z,81.25
2018-12-01T14:41:29.980Z,81.35
2018-12-01T14:44:34.916Z,82.41
2018-12-01T14:47:39.777Z,82.71
2018-12-01T14:50:48.548Z,83.52
2018-12-01T14:53:50.483Z,84.42
2018-12-01T14:56:55.338Z,87.88
2018-12-01T15:00:00.292Z,88.30
2018-12-01T15:03:05.621Z,88.44
2018-12-01T15:06:10.491Z,88.97
2018-12-01T15:09:15.356Z,89.64
2018-12-01T15:12:20.236Z,87.77
2018-12-01T15:15:29.105Z,88.82
2018-12-01T15:18:33.944Z,85.32
2018-12-01T15:21:39.244Z,84.16
2018-12-01T15:24:44.176Z,84.80
2018-12-01T15:27:49.209Z,85.43
2018-12-01T15:30:54.422Z,84.20
2018-12-01T15:33:59.536Z,84.78
2018-12-01T15:37:04.334Z,85.90
2018-12-01T15:40:16.546Z,87.21
2018-12-01T15:43:21.518Z,87.43
2018-12-01T15:46:26.340Z,89.03
2018-12-01T15:49:31.570Z,90.04
2018-12-01T15:52:36.815Z,90.38
2018-12-01T15:55:41.736Z,90.66
2018-12-01T15:58:46.777Z,89.94
2018-12-01T16:01:51.679Z,90.62
2018-12-01T16:04:56.565Z,91.13
2018-12-01T16:08:01.571Z,90.43
2018-12-01T16:11:07.051Z,87.87
2018-12-01T16:14:12.586Z,88.49
2018-12-01T16:17:17.534Z,85.95
2018-12-01T16:20:22.439Z,86.39
2018-12-01T16:23:27.291Z,86.65
2018-12-01T16:26:32.192Z,84.09
2018-12-01T16:29:37.170Z,82.44
2018-12-01T16:32:42.020Z,83.52
2018-12-01T16:35:46.905Z,84.18
2018-12-01T16:38:51.979Z,83.26
2018-12-01T16:41:56.851Z,83.87
2018-12-01T16:45:01.847Z,83.69
2018-12-01T16:48:06.674Z,83.60
2018-12-01T16:51:11.576Z,83.81
2018-12-01T16:54:16.435Z,84.34
2018-12-01T16:57:21.394Z,84.21
2018-12-01T17:00:26.282Z,84.95
2018-12-01T17:03:31.144Z,85.70
2018-12-01T17:06:35.991Z,85.57
2018-12-01T17:09:40.934Z,86.24
2018-12-01T17:12:46.494Z,85.84
2018-12-01T17:15:51.406Z,86.31
2018-12-01T17:18:56.410Z,86.04
2018-12-01T17:22:01.312Z,87.65
2018-12-01T17:25:07.972Z,88.74
2018-12-01T17:28:17.441Z,86.97
2018-12-01T17:31:22.294Z,86.66
2018-12-01T17:34:27.221Z,85.86
2018-12-01T17:37:32.107Z,84.91
2018-12-01T17:40:59.154Z,84.92
2018-12-01T17:44:08.915Z,86.51
2018-12-01T17:47:13.811Z,85.85
2018-12-01T17:50:19.098Z,86.68
2018-12-01T17:53:24.169Z,86.30
2018-12-01T17:56:28.970Z,85.19
2018-12-01T17:59:33.911Z,86.45
2018-12-01T18:02:39.725Z,86.69
2018-12-01T18:05:48.820Z,86.04
2018-12-01T18:08:53.725Z,85.57
2018-12-01T18:11:58.724Z,86.74
2018-12-01T18:15:03.600Z,86.00
2018-12-01T18:18:08.697Z,85.73
2018-12-01T18:21:13.543Z,85.69
2018-12-01T18:24:18.450Z,85.27
2018-12-01T18:27:23.530Z,85.43
2018-12-01T18:30:33.445Z,85.79
2018-12-01T18:33:40.750Z,84.65
2018-12-01T18:36:45.606Z,85.00
2018-12-01T18:39:50.467Z,82.09
2018-12-01T18:42:55.368Z,83.08
2018-12-01T18:46:01.943Z,83.63
2018-12-01T18:49:06.839Z,83.29
2018-12-01T18:52:11.786Z,84.15
2018-12-01T18:55:16.767Z,84.04
2018-12-01T18:58:22.241Z,84.05
2018-12-01T19:01:27.108Z,82.92
2018-12-01T19:04:31.992Z,82.06
2018-12-01T19:07:36.905Z,80.64
2018-12-01T19:10:41.812Z,82.63
2018-12-01T19:13:46.695Z,82.16
2018-12-01T19:16:51.616Z,81.98
2018-12-01T19:19:56.488Z,81.53
2018-12-01T19:23:01.793Z,81.75
2018-12-01T19:26:07.415Z,81.74
2018-12-01T19:29:12.570Z,81.60
2018-12-01T19:32:17.492Z,82.31
2018-12-01T19:35:22.327Z,82.23
2018-12-01T19:38:31.180Z,82.26
2018-12-01T19:41:36.041Z,80.97
2018-12-01T19:44:40.961Z,82.01
2018-12-01T19:47:45.799Z,82.16
2018-12-01T19:50:50.691Z,81.65
2018-12-01T19:53:55.645Z,80.96
2018-12-01T19:57:00.494Z,80.49
2018-12-01T20:00:06.004Z,80.58
2018-12-01T20:03:15.920Z,80.87
2018-12-01T20:06:20.876Z,81.28
2018-12-01T20:09:25.716Z,81.13
2018-12-01T20:12:30.657Z,81.02
2018-12-01T20:15:46.786Z,81.52
2018-12-01T20:18:51.910Z,80.29
2018-12-01T20:21:56.707Z,80.28
2018-12-01T20:25:01.587Z,81.68
2018-12-01T20:28:06.700Z,81.84
2018-12-01T20:31:11.564Z,80.69
2018-12-01T20:34:16.556Z,82.25
2018-12-01T20:37:21.481Z,82.78
2018-12-01T20:40:26.330Z,83.16
2018-12-01T20:43:31.201Z,82.62
2018-12-01T20:46:36.125Z,82.67
2018-12-01T20:49:41.030Z,83.17
2018-12-01T20:52:47.175Z,82.79
2018-12-01T20:55:57.005Z,84.69
2018-12-01T20:59:01.950Z,84.68
2018-12-01T21:02:06.810Z,83.83
2018-12-01T21:05:19.370Z,85.08
2018-12-01T21:08:27.878Z,84.31
2018-12-01T21:11:35.886Z,84.92
2018-12-01T21:14:38.179Z,85.02
2018-12-01T21:17:44.402Z,85.38
2018-12-01T21:20:49.386Z,84.80
2018-12-01T21:23:54.359Z,84.10
2018-12-01T21:26:59.236Z,84.47
2018-12-01T21:30:04.104Z,84.37
2018-12-01T21:33:14.302Z,86.75
2018-12-01T21:36:19.175Z,86.20
2018-12-01T21:39:24.021Z,85.58
2018-12-01T21:42:28.891Z,86.22
2018-12-01T21:45:33.785Z,86.14
2018-12-01T21:48:39.450Z,87.88
2018-12-01T21:51:44.436Z,87.50
2018-12-01T21:54:49.474Z,87.75
2018-12-01T21:57:55.075Z,87.88
2018-12-01T22:01:01.506Z,87.65
2018-12-01T22:04:06.893Z,88.33
2018-12-01T22:07:11.796Z,88.17
2018-12-01T22:10:17.591Z,87.91
2018-12-01T22:13:22.418Z,88.52
2018-12-01T22:16:27.261Z,88.22
2018-12-01T22:19:32.164Z,87.37
2018-12-01T22:22:37.107Z,88.78
2018-12-01T22:25:41.969Z,88.43
2018-12-01T22:28:46.972Z,89.04
2018-12-01T22:31:51.855Z,89.37
2018-12-01T22:34:56.772Z,90.80
2018-12-01T22:38:01.634Z,90.71
2018-12-01T22:41:06.770Z,90.45
2018-12-01T22:44:11.722Z,91.19
2018-12-01T22:47:16.636Z,91.11
2018-12-01T22:50:22.261Z,90.56
2018-12-01T22:53:27.121Z,90.10
2018-12-01T22:56:32.005Z,92.59
2018-12-01T22:59:36.897Z,91.19
2018-12-01T23:02:41.742Z,92.15
2018-12-01T23:05:46.660Z,92.66
2018-12-01T23:08:51.647Z,92.32
2018-12-01T23:11:56.783Z,92.74
2018-12-01T23:15:01.784Z,93.45
2018-12-01T23:18:11.564Z,93.27
2018-12-01T23:21:20.645Z,92.84
2018-12-01T23:24:22.206Z,92.36
2018-12-01T23:27:27.101Z,94.55
2018-12-01T23:30:32.537Z,94.63
2018-12-01T23:33:37.400Z,94.32
2018-12-01T23:36:42.372Z,94.38
2018-12-01T23:39:47.181Z,95.22
2018-12-01T23:42:52.053Z,94.82
2018-12-01T23:45:56.894Z,94.86
2018-12-01T23:49:01.757Z,94.21
2018-12-01T23:52:06.835Z,93.81
2018-12-01T23:55:12.884Z,93.54
2018-12-01T23:58:17.709Z,92.86
